MMCP/CPE METAR and TAF weather

Enter ICAO airport designator
Station Type Date Time Source
MMCP METAR 2019/06/27 05:41 UTC NOAA

MMCP 270541Z 00000KT 7SM SCT100 24/23 A3001 RMK 8/030


Station Type Date Time Source
MMCP Decoded METAR 2019/06/27 05:41 UTC NOAA

Campeche, Camp., Mexico (MMCP) 19-51N 090-33W
Jun 27, 2019 - 01:41 AM EDT / 2019.06.27 0541 UTC
Wind: Calm:0
Visibility: 7 mile(s):0
Sky conditions: partly cloudy
Temperature: 75 F (24 C)
Dew Point: 73 F (23 C)
Relative Humidity: 94%
Pressure (altimeter): 30.01 in. Hg (1016 hPa)
ob: MMCP 270541Z 00000KT 7SM SCT100 24/23 A3001 RMK 8/030
cycle: 5

Station Type Date Time Source
MMCP TAF 2019/06/27 06:43 UTC NOAA

TAF MMCP 270536Z 2706/2806 18005KT P6SM BKN100
FM271000 12004KT 5SM HZ SCT020 SCT080
TEMPO 2711/2715 3SM BR
FM271800 05010KT 6SM HZ SCT025 BKN080 PROB40 2723/2803 4SM TSRA BKN025CB

Example: see airport list